Thomas, New Mexico
Current Conditions -  °F | °C
As of 5:55 AM on Wednesday 22 Oct 2014 (Local Time) from KCAO Reporting Station
Few Clouds Few Clouds  
Wind Chill: 13°   Ceiling: Unl
Heat Index: 13°   Visibility: 10mi
Dew Point: 11°   Wind: 14mph
Humidity: 86%   Direction: 210°SSW
Pressure: 30.07"   Gusts: NA
Location:  36.2639°N, 103.376°W
Report Text: KCAO 221155Z AUTO 21012KT 10SM FEW100 13/11 A3007 RMK AO2 SLP138 T01280106 10133 20117 53005
Loading
Personal Weather Stations






























Interactive Weather Map
Tropical Storm Tracking
New forecast layout! Learn more

10-Day Weather Forecast

Advertisements
Track Severe Weather on mobile